Terminal Aerodrome Forecast
Issued by NWS Pittsburgh, PA

Current Version | Previous Version | Text Only | Print | Product List | Glossary Off
Versions: 1 2 3 4 5 6 7 8 9 10 11 12 13 14 15 16 17 18 19 20 21 22 23

000
FTUS41 KPBZ 262326
TAFPIT
TAF
KPIT 262326Z 2700/2806 21006KT P6SM SCT100
     FM270900 21005KT 3SM BR BKN110
     FM271300 22005KT P6SM BKN045
     FM272000 23005KT P6SM BKN040
     FM280200 00000KT P6SM SCT090=

USA.gov is the U.S. government's official web portal to all federal, state and local government web resources and services.